Terminal Aerodrome Forecast
Issued by NWS

Home | Current Version | Previous Version | Text Only | Print | Product List | Glossary On
Versions: 1 2 3 4 5 6 7 8 9 10 11 12
000
FTUS42 KGSP 230500
TAFGMU
TAF
KGMU 230521Z 2306/2406 04007KT P6SM BKN060
     FM231600 05008KT P6SM BKN050
     FM240000 05007KT P6SM SCT050 BKN120=

USA.gov is the U.S. government's official web portal to all federal, state and local government web resources and services.